Time;durP1;ratioP1;P1;durP2;ratioP2;P2;SDS_P1;SDS_P2;PMS_P1;PMS_P2;Temp;Humidity;BMP_temperature;BMP_pressure;BME280_temperature;BME280_humidity;BME280_pressure;Samples;Min_cycle;Max_cycle;Signal;HPM_P1;HPM_P2
2023/07/20 00:02:12;;;;;;;5.70;2.53;;;;;;;28.14;45.15;98881.69;4393044;32;33902;-70
2023/07/20 00:04:57;;;;;;;11.48;2.60;;;;;;;28.19;45.01;98879.03;4389656;32;33502;-71
2023/07/20 00:07:25;;;;;;;6.57;2.78;;;;;;;28.19;44.87;98885.38;4389497;32;35125;-70
2023/07/20 00:09:53;;;;;;;5.93;2.50;;;;;;;28.14;44.99;98878.94;4388394;32;33819;-70
2023/07/20 00:12:20;;;;;;;3.72;1.92;;;;;;;28.12;45.42;98878.34;4389135;32;33877;-70
2023/07/20 00:14:48;;;;;;;4.75;2.17;;;;;;;28.16;45.04;98874.88;4390685;32;33633;-68
2023/07/20 00:17:16;;;;;;;9.27;2.70;;;;;;;28.18;44.95;98874.59;4389115;32;34627;-70
2023/07/20 00:19:43;;;;;;;4.22;1.95;;;;;;;28.13;45.04;98863.53;4419123;32;34004;-69
2023/07/20 00:22:13;;;;;;;8.23;2.28;;;;;;;28.12;45.06;98854.44;4422919;32;34896;-70
2023/07/20 00:24:40;;;;;;;9.32;2.58;;;;;;;28.10;45.16;98871.19;4433868;32;34218;-71
2023/07/20 00:27:08;;;;;;;7.07;2.65;;;;;;;28.08;45.19;98862.34;4420529;32;33777;-69
2023/07/20 00:29:36;;;;;;;7.20;2.95;;;;;;;28.04;45.48;98865.87;4413676;32;34102;-69
2023/07/20 00:32:07;;;;;;;4.97;2.50;;;;;;;28.13;45.03;98875.38;4417655;32;33843;-69
2023/07/20 00:34:35;;;;;;;9.25;3.00;;;;;;;28.14;44.98;98879.78;4420347;32;33461;-69
2023/07/20 00:37:03;;;;;;;9.75;2.40;;;;;;;27.75;45.86;98884.31;4425015;32;32882;-69
2023/07/20 00:39:30;;;;;;;5.65;2.35;;;;;;;28.03;45.36;98880.72;4419286;32;34692;-73
2023/07/20 00:41:58;;;;;;;7.87;2.80;;;;;;;27.84;45.61;98877.34;4425819;32;34419;-65
2023/07/20 00:44:26;;;;;;;12.27;2.37;;;;;;;27.61;46.26;98870.88;4419999;32;33619;-67
2023/07/20 00:46:54;;;;;;;5.18;2.08;;;;;;;27.89;45.70;98869.19;4420077;32;34061;-69
2023/07/20 00:49:22;;;;;;;4.07;2.17;;;;;;;27.98;45.63;98869.59;4415928;32;33861;-68
2023/07/20 00:51:50;;;;;;;7.35;1.95;;;;;;;28.08;45.36;98861.53;4419088;32;35220;-68
2023/07/20 00:54:18;;;;;;;7.10;2.45;;;;;;;28.07;45.22;98860.69;4425613;32;33391;-70
2023/07/20 00:56:46;;;;;;;5.53;1.75;;;;;;;28.09;45.30;98850.28;4420724;32;35124;-69
2023/07/20 00:59:14;;;;;;;4.37;1.50;;;;;;;28.07;45.37;98854.38;4417794;32;34165;-72
2023/07/20 01:01:41;;;;;;;4.10;2.03;;;;;;;28.11;45.51;98841.78;4422354;32;33942;-71
2023/07/20 01:04:09;;;;;;;4.60;2.20;;;;;;;28.15;45.39;98840.16;4419796;32;33907;-71
2023/07/20 01:07:05;;;;;;;5.55;2.30;;;;;;;28.07;45.38;98838.69;4420769;32;34070;-71
2023/07/20 01:10:14;;;;;;;4.35;1.87;;;;;;;28.10;45.77;98840.13;4365633;32;33756;-71
2023/07/20 01:12:42;;;;;;;8.73;2.90;;;;;;;28.15;45.61;98836.59;4358243;32;34562;-72
2023/07/20 01:15:12;;;;;;;6.40;2.17;;;;;;;28.15;45.72;98834.66;4359547;32;34329;-72
2023/07/20 01:17:39;;;;;;;7.18;2.60;;;;;;;28.08;45.58;98832.09;4359791;32;33621;-73
2023/07/20 01:20:09;;;;;;;6.62;2.45;;;;;;;28.05;45.38;98827.09;4344919;32;34477;-70
2023/07/20 01:22:50;;;;;;;6.57;2.40;;;;;;;28.05;45.44;98832.59;4348517;32;33966;-72
2023/07/20 01:25:56;;;;;;;5.95;2.42;;;;;;;28.06;45.42;98827.94;4350034;32;33585;-70
2023/07/20 01:28:35;;;;;;;5.60;2.15;;;;;;;27.95;45.62;98824.19;4333357;32;33702;-69
2023/07/20 01:31:25;;;;;;;5.53;2.20;;;;;;;27.81;45.96;98818.19;4327281;33;33697;-70
2023/07/20 01:33:57;;;;;;;6.45;2.33;;;;;;;27.90;45.67;98829.63;4331352;33;34016;-70
2023/07/20 01:36:27;;;;;;;8.25;2.03;;;;;;;27.94;45.71;98827.19;4326728;33;34337;-70
2023/07/20 01:38:56;;;;;;;6.00;2.33;;;;;;;27.91;45.86;98833.19;4326273;33;35095;-70
2023/07/20 01:41:23;;;;;;;5.10;2.08;;;;;;;27.92;45.91;98832.94;4327413;33;34084;-70
2023/07/20 01:43:51;;;;;;;6.12;2.53;;;;;;;28.01;45.67;98836.94;4334647;33;35138;-70
2023/07/20 01:46:19;;;;;;;4.85;2.12;;;;;;;27.97;45.54;98838.53;4349035;32;33373;-70
2023/07/20 01:48:47;;;;;;;4.97;2.08;;;;;;;28.02;45.42;98849.59;4377395;32;33515;-70
2023/07/20 01:51:15;;;;;;;5.65;2.42;;;;;;;27.99;45.44;98850.09;4374533;32;34409;-70
2023/07/20 01:53:42;;;;;;;6.43;2.97;;;;;;;27.89;45.85;98854.59;4370740;32;34783;-70
2023/07/20 01:56:12;;;;;;;4.75;1.87;;;;;;;27.84;45.80;98852.59;4372699;32;34803;-70
2023/07/20 01:58:39;;;;;;;3.67;1.95;;;;;;;27.80;45.85;98856.91;4379972;32;34477;-70
2023/07/20 02:01:07;;;;;;;5.05;2.12;;;;;;;27.74;46.09;98857.91;4368856;32;33946;-70
2023/07/20 02:03:35;;;;;;;5.45;1.73;;;;;;;27.84;45.82;98866.34;4377377;32;34900;-69
2023/07/20 02:06:03;;;;;;;4.15;1.65;;;;;;;27.90;46.03;98873.63;4411027;32;34713;-73
2023/07/20 02:08:31;;;;;;;6.78;2.30;;;;;;;27.89;45.77;98871.09;4417630;32;34814;-70
2023/07/20 02:10:59;;;;;;;5.90;2.15;;;;;;;27.85;45.77;98868.00;4418082;32;33579;-70
2023/07/20 02:13:26;;;;;;;4.18;2.30;;;;;;;27.63;46.47;98865.94;4421467;32;34000;-70
2023/07/20 02:15:54;;;;;;;6.57;2.65;;;;;;;27.75;46.16;98867.81;4415480;32;34427;-71
2023/07/20 02:18:22;;;;;;;5.18;1.87;;;;;;;27.97;45.55;98866.03;4398562;32;33741;-71
2023/07/20 02:20:53;;;;;;;7.90;2.78;;;;;;;27.78;46.04;98868.19;4398278;32;34131;-72
2023/07/20 02:23:20;;;;;;;5.72;1.80;;;;;;;27.67;46.31;98877.28;4402108;32;32850;-73
2023/07/20 02:25:48;;;;;;;3.42;1.83;;;;;;;27.46;47.13;98875.25;4394020;32;33404;-72
2023/07/20 02:28:16;;;;;;;6.35;2.87;;;;;;;27.22;48.24;98875.31;4401464;32;33731;-73
2023/07/20 02:30:43;;;;;;;3.75;1.87;;;;;;;27.58;47.21;98876.03;4400124;32;34981;-73
2023/07/20 02:33:11;;;;;;;7.10;2.75;;;;;;;27.66;47.06;98874.78;4398858;32;34103;-73
2023/07/20 02:35:40;;;;;;;9.32;2.62;;;;;;;27.49;47.54;98878.34;4400945;32;33732;-73
2023/07/20 02:38:08;;;;;;;4.32;2.58;;;;;;;27.68;46.94;98878.13;4401621;32;33529;-72
2023/07/20 02:40:35;;;;;;;4.32;1.98;;;;;;;27.71;46.85;98874.91;4403098;32;35006;-73
2023/07/20 02:43:03;;;;;;;4.90;2.33;;;;;;;27.63;46.90;98876.94;4401492;32;33588;-72
2023/07/20 02:45:31;;;;;;;9.85;3.20;;;;;;;27.17;47.85;98880.72;4400209;32;33420;-73
2023/07/20 02:47:58;;;;;;;4.65;2.35;;;;;;;27.57;46.73;98879.84;4400249;32;33575;-73
2023/07/20 02:50:26;;;;;;;6.28;2.40;;;;;;;27.38;46.82;98887.44;4398469;32;32619;-72
2023/07/20 02:52:54;;;;;;;10.82;2.40;;;;;;;27.55;46.49;98888.34;4401448;32;33844;-72
2023/07/20 02:55:22;;;;;;;5.20;2.12;;;;;;;27.00;47.63;98877.03;4404528;32;33733;-72
2023/07/20 02:57:50;;;;;;;4.65;1.98;;;;;;;27.23;47.15;98890.75;4419416;32;34987;-73
2023/07/20 03:00:19;;;;;;;8.55;2.45;;;;;;;27.34;46.94;98891.78;4414207;32;33718;-73
2023/07/20 03:02:52;;;;;;;2.85;1.73;;;;;;;27.52;46.38;98888.00;4422026;32;34166;-74
2023/07/20 03:05:21;;;;;;;9.45;3.12;;;;;;;27.14;47.28;98892.19;4432796;32;34228;-73
2023/07/20 03:07:49;;;;;;;9.90;2.12;;;;;;;26.95;47.67;98894.22;4431513;32;33708;-73
2023/07/20 03:10:16;;;;;;;4.28;2.30;;;;;;;26.57;48.60;98895.59;4433485;32;33996;-73
2023/07/20 03:12:44;;;;;;;5.65;2.00;;;;;;;26.83;48.02;98901.66;4435262;32;34198;-73
2023/07/20 03:15:12;;;;;;;4.90;2.03;;;;;;;26.79;48.28;98909.53;4437905;32;34365;-73
2023/07/20 03:17:40;;;;;;;5.30;2.12;;;;;;;26.93;47.90;98905.47;4423004;32;34963;-75
2023/07/20 03:20:09;;;;;;;3.10;1.33;;;;;;;26.67;48.33;98911.44;4435074;32;35058;-72
2023/07/20 03:22:37;;;;;;;6.55;2.58;;;;;;;26.09;49.97;98915.78;4427069;32;34849;-72
2023/07/20 03:25:05;;;;;;;6.65;1.92;;;;;;;26.16;49.85;98913.81;4414622;32;33848;-72
2023/07/20 03:27:33;;;;;;;4.70;1.92;;;;;;;25.51;51.32;98919.16;4426548;32;34015;-74
2023/07/20 03:30:00;;;;;;;7.75;2.47;;;;;;;25.96;50.22;98908.59;4414527;32;34316;-72
2023/07/20 03:32:28;;;;;;;3.40;1.80;;;;;;;26.34;49.10;98912.84;4415455;32;34057;-72
2023/07/20 03:34:56;;;;;;;12.10;2.45;;;;;;;26.21;49.14;98922.12;4418305;32;33478;-72
2023/07/20 03:37:24;;;;;;;4.47;1.92;;;;;;;25.67;50.28;98918.50;4417634;32;33438;-73
2023/07/20 03:39:51;;;;;;;5.12;2.65;;;;;;;25.94;49.70;98912.66;4419537;32;33970;-73
2023/07/20 03:42:19;;;;;;;4.53;2.05;;;;;;;25.95;49.52;98926.13;4420027;32;34759;-72
2023/07/20 03:44:47;;;;;;;3.22;1.92;;;;;;;26.10;49.04;98933.94;4417102;32;33115;-73
2023/07/20 03:47:15;;;;;;;6.90;2.75;;;;;;;25.79;49.62;98932.25;4404678;32;33534;-73
2023/07/20 03:49:42;;;;;;;5.60;2.35;;;;;;;26.12;48.96;98929.03;4424899;32;34960;-73
2023/07/20 03:52:10;;;;;;;4.93;2.55;;;;;;;26.22;48.62;98934.75;4415386;32;34039;-72
2023/07/20 03:54:38;;;;;;;5.10;2.08;;;;;;;26.34;48.31;98931.22;4414513;32;34723;-72
2023/07/20 03:57:06;;;;;;;5.22;2.10;;;;;;;26.08;48.97;98927.00;4425016;32;33277;-72
2023/07/20 03:59:33;;;;;;;8.18;2.47;;;;;;;26.11;48.85;98921.88;4425631;32;33754;-73
2023/07/20 04:02:01;;;;;;;6.30;2.30;;;;;;;26.35;48.27;98924.66;4436098;32;34041;-74
2023/07/20 04:04:29;;;;;;;8.65;1.67;;;;;;;26.34;47.91;98934.78;4433880;32;33511;-74
2023/07/20 04:06:56;;;;;;;4.75;2.30;;;;;;;26.10;48.14;98933.06;4435453;32;34435;-73
2023/07/20 04:09:24;;;;;;;3.65;1.75;;;;;;;25.99;47.49;98934.72;4439686;32;35514;-74
2023/07/20 04:11:52;;;;;;;6.20;2.03;;;;;;;25.84;46.96;98928.84;4434815;32;34035;-74
2023/07/20 04:14:19;;;;;;;11.73;1.67;;;;;;;25.78;46.65;98923.19;4434161;32;34334;-74
2023/07/20 04:16:47;;;;;;;3.42;1.70;;;;;;;25.61;46.75;98926.81;4432381;32;33847;-73
2023/07/20 04:19:17;;;;;;;3.67;2.17;;;;;;;25.53;47.29;98922.50;4432926;32;37815;-73
2023/07/20 04:21:45;;;;;;;6.65;2.30;;;;;;;25.53;47.33;98911.56;4438820;32;33766;-75
2023/07/20 04:24:13;;;;;;;4.55;2.47;;;;;;;25.81;46.74;98897.28;4435068;32;33512;-76
2023/07/20 04:26:41;;;;;;;4.40;2.00;;;;;;;25.81;46.82;98905.50;4434479;32;33760;-75
2023/07/20 04:29:09;;;;;;;5.40;2.67;;;;;;;25.83;46.62;98903.34;4430371;32;35363;-72
2023/07/20 04:31:37;;;;;;;3.45;1.98;;;;;;;26.04;46.14;98904.72;4435143;32;34041;-72
2023/07/20 04:34:05;;;;;;;4.60;2.58;;;;;;;26.08;46.20;98907.81;4440343;32;34207;-72
2023/07/20 04:36:33;;;;;;;5.03;1.75;;;;;;;25.72;47.17;98907.69;4429750;32;33796;-77
2023/07/20 04:39:01;;;;;;;5.68;1.95;;;;;;;25.57;47.72;98907.28;4434717;32;34190;-73
2023/07/20 04:41:30;;;;;;;3.50;1.92;;;;;;;25.55;47.67;98907.53;4436380;32;34468;-72
2023/07/20 04:44:01;;;;;;;5.70;2.70;;;;;;;25.72;47.00;98907.69;4438006;32;33904;-71
2023/07/20 04:46:28;;;;;;;5.72;2.47;;;;;;;25.86;46.68;98910.25;4431855;32;34765;-72
2023/07/20 04:48:56;;;;;;;5.05;2.67;;;;;;;25.35;47.02;98914.31;4435711;32;34809;-72
2023/07/20 04:51:24;;;;;;;3.90;2.08;;;;;;;25.83;46.18;98916.22;4434320;32;34945;-72
2023/07/20 04:53:53;;;;;;;4.28;1.98;;;;;;;26.05;45.88;98914.59;4434368;32;33451;-72
2023/07/20 04:56:23;;;;;;;4.95;2.12;;;;;;;25.76;45.75;98917.09;4433339;32;33777;-72
2023/07/20 04:58:51;;;;;;;4.15;2.22;;;;;;;26.12;45.24;98915.31;4437082;32;34923;-73
2023/07/20 05:01:19;;;;;;;4.00;2.10;;;;;;;25.44;46.46;98921.16;4430504;32;34942;-72
2023/07/20 05:03:47;;;;;;;4.87;2.22;;;;;;;25.55;46.45;98932.19;4434080;32;33702;-73
2023/07/20 05:06:15;;;;;;;5.10;2.03;;;;;;;25.67;46.42;98913.03;4436613;32;34995;-71
2023/07/20 05:08:42;;;;;;;4.85;2.30;;;;;;;25.76;46.70;98919.84;4435476;32;34766;-71
2023/07/20 05:11:11;;;;;;;4.82;2.78;;;;;;;25.92;46.45;98917.56;4434440;32;33877;-71
2023/07/20 05:13:40;;;;;;;6.55;2.33;;;;;;;26.08;46.00;98918.78;4436388;32;34041;-73
2023/07/20 05:16:08;;;;;;;4.47;2.22;;;;;;;26.20;45.58;98923.22;4434954;32;34517;-71
2023/07/20 05:18:36;;;;;;;4.35;2.35;;;;;;;26.19;45.69;98916.03;4434132;32;35107;-71
2023/07/20 05:21:05;;;;;;;4.50;2.33;;;;;;;26.35;45.70;98922.75;4435657;32;35015;-72
2023/07/20 05:23:33;;;;;;;6.03;2.42;;;;;;;25.83;46.85;98929.91;4433967;32;35235;-71
2023/07/20 05:26:02;;;;;;;5.50;2.28;;;;;;;26.09;46.71;98923.19;4434221;32;33800;-71
2023/07/20 05:28:29;;;;;;;7.70;2.72;;;;;;;26.39;45.37;98926.69;4435290;32;34788;-70
2023/07/20 05:30:59;;;;;;;4.15;2.15;;;;;;;25.85;46.92;98933.28;4437452;32;34102;-71
2023/07/20 05:33:27;;;;;;;4.85;2.17;;;;;;;26.05;46.86;98922.00;4435393;32;34358;-71
2023/07/20 05:35:55;;;;;;;4.80;2.90;;;;;;;26.12;46.70;98939.16;4433024;32;33898;-71
2023/07/20 05:38:22;;;;;;;5.97;2.35;;;;;;;26.31;46.43;98938.00;4432667;32;34970;-71
2023/07/20 05:40:50;;;;;;;7.28;3.37;;;;;;;26.17;47.11;98934.66;4430811;32;34948;-71
2023/07/20 05:43:18;;;;;;;3.87;2.03;;;;;;;25.83;47.86;98938.12;4436979;32;34790;-71
2023/07/20 05:45:47;;;;;;;9.27;3.25;;;;;;;26.17;47.05;98936.56;4434109;32;35098;-71
2023/07/20 05:48:16;;;;;;;7.95;2.80;;;;;;;26.37;46.50;98941.72;4422832;32;33928;-70
2023/07/20 05:50:44;;;;;;;4.07;2.40;;;;;;;25.97;47.69;98934.97;4435592;32;34958;-72
2023/07/20 05:53:11;;;;;;;9.75;3.80;;;;;;;25.63;48.56;98935.66;4432315;32;34846;-71
2023/07/20 05:55:40;;;;;;;6.12;2.65;;;;;;;25.52;48.54;98938.12;4431421;32;33573;-71
2023/07/20 05:58:08;;;;;;;4.97;2.30;;;;;;;25.58;48.62;98935.50;4429420;32;34214;-71
2023/07/20 06:00:35;;;;;;;5.95;2.95;;;;;;;25.71;47.85;98936.16;4432830;32;34095;-71
2023/07/20 06:03:03;;;;;;;7.93;3.47;;;;;;;26.29;46.63;98936.56;4424917;32;33341;-72
2023/07/20 06:05:31;;;;;;;8.43;3.12;;;;;;;26.25;45.92;98944.44;4420536;32;34506;-72
2023/07/20 06:08:00;;;;;;;6.07;2.78;;;;;;;26.90;45.25;98949.03;4415183;32;34278;-72
2023/07/20 06:10:28;;;;;;;8.18;2.97;;;;;;;26.57;44.32;98944.97;4411397;32;33359;-74
2023/07/20 06:12:56;;;;;;;4.95;2.78;;;;;;;26.12;45.40;98956.44;4417611;32;34490;-72
2023/07/20 06:15:25;;;;;;;4.18;2.05;;;;;;;26.70;44.29;98958.47;4413273;32;34158;-72
2023/07/20 06:17:55;;;;;;;6.05;2.55;;;;;;;26.78;44.63;98967.44;4411829;32;34308;-71
2023/07/20 06:20:23;;;;;;;5.15;2.40;;;;;;;26.50;45.30;98963.47;4418822;32;34919;-72
2023/07/20 06:22:51;;;;;;;5.80;2.60;;;;;;;26.82;44.09;98971.37;4417351;32;33222;-71
2023/07/20 06:25:20;;;;;;;6.07;2.53;;;;;;;26.62;44.94;98969.81;4418137;32;34001;-71
2023/07/20 06:27:51;;;;;;;6.10;2.47;;;;;;;27.13;44.38;98965.53;4413565;32;33801;-71
2023/07/20 06:30:19;;;;;;;5.18;2.55;;;;;;;27.30;43.70;98965.59;4410903;32;34176;-72
2023/07/20 06:32:47;;;;;;;8.05;2.78;;;;;;;27.62;43.25;98967.91;4421646;32;33276;-72
2023/07/20 06:35:15;;;;;;;4.28;2.50;;;;;;;27.05;43.70;98974.09;4418066;32;34050;-71
2023/07/20 06:37:43;;;;;;;4.43;2.53;;;;;;;27.71;42.59;98977.44;4419274;32;33865;-71
2023/07/20 06:40:12;;;;;;;6.78;2.70;;;;;;;27.94;41.85;98986.69;4420431;32;33809;-72
2023/07/20 06:42:42;;;;;;;5.55;2.60;;;;;;;27.43;42.29;98980.16;4420422;32;32866;-73
2023/07/20 06:45:13;;;;;;;4.68;2.50;;;;;;;27.38;42.20;98989.09;4417330;32;33823;-72
2023/07/20 06:47:40;;;;;;;4.93;2.80;;;;;;;27.69;41.96;98996.06;4419108;32;35054;-71
2023/07/20 06:50:09;;;;;;;5.60;2.37;;;;;;;27.30;42.51;99004.06;4414817;32;34248;-72
2023/07/20 06:52:43;;;;;;;5.25;2.78;;;;;;;27.25;43.52;98998.44;4419393;32;31818;-73
2023/07/20 06:55:11;;;;;;;6.45;2.50;;;;;;;27.35;42.39;99006.06;4415272;32;33623;-71
2023/07/20 06:57:38;;;;;;;4.95;2.50;;;;;;;27.24;42.48;99001.44;4405859;32;35465;-71
2023/07/20 07:00:07;;;;;;;6.05;2.97;;;;;;;27.52;42.39;99001.50;4419798;32;33476;-71
2023/07/20 07:02:34;;;;;;;6.65;2.42;;;;;;;27.76;41.75;98993.19;4418928;32;33667;-72
2023/07/20 07:05:02;;;;;;;7.18;2.97;;;;;;;27.75;41.01;98988.78;4427174;32;33613;-71
2023/07/20 07:07:48;;;;;;;5.93;2.75;;;;;;;26.86;41.66;98992.59;4427557;32;33965;-71
2023/07/20 07:10:15;;;;;;;5.60;1.98;;;;;;;27.02;40.20;98998.44;4435632;32;33817;-71
2023/07/20 07:12:43;;;;;;;4.18;2.17;;;;;;;27.44;39.68;99004.63;4431419;32;33368;-71
2023/07/20 07:15:11;;;;;;;13.38;2.67;;;;;;;27.29;39.50;99005.16;4435398;32;34210;-72
2023/07/20 07:17:38;;;;;;;13.57;2.90;;;;;;;27.24;39.81;99009.69;4433255;32;34116;-72
2023/07/20 07:20:07;;;;;;;9.45;2.35;;;;;;;27.30;39.69;99012.31;4434651;32;34890;-72
2023/07/20 07:22:38;;;;;;;6.03;2.45;;;;;;;27.38;38.98;99011.09;4431328;32;33348;-71
2023/07/20 07:25:07;;;;;;;4.80;2.55;;;;;;;26.87;39.33;99007.16;4434782;32;34441;-71
2023/07/20 07:27:35;;;;;;;8.57;2.47;;;;;;;27.30;39.08;99014.22;4432920;32;35239;-72
2023/07/20 07:30:03;;;;;;;6.32;2.40;;;;;;;26.73;39.71;99014.78;4432354;32;35866;-72
2023/07/20 07:32:31;;;;;;;6.07;2.42;;;;;;;26.99;39.45;99015.41;4433908;32;34933;-71
2023/07/20 07:35:00;;;;;;;7.18;2.65;;;;;;;27.03;39.98;99009.22;4431878;32;33674;-72
2023/07/20 07:37:29;;;;;;;5.28;2.30;;;;;;;26.84;39.95;99013.16;4433193;32;33656;-72
2023/07/20 07:40:03;;;;;;;4.30;1.98;;;;;;;26.94;39.01;99014.22;4435156;32;34214;-71
2023/07/20 07:42:31;;;;;;;7.70;2.55;;;;;;;27.37;38.46;99013.00;4430824;32;35100;-72
2023/07/20 07:44:58;;;;;;;5.43;2.25;;;;;;;27.70;38.80;99014.22;4428297;32;33615;-72
2023/07/20 07:47:26;;;;;;;5.37;2.58;;;;;;;27.68;39.08;99018.31;4429590;32;33685;-72
2023/07/20 07:49:54;;;;;;;6.45;2.37;;;;;;;28.12;37.54;99018.66;4427859;32;34012;-71
2023/07/20 07:52:22;;;;;;;13.05;2.30;;;;;;;27.50;38.55;99014.66;4431894;32;33312;-73
2023/07/20 07:54:49;;;;;;;5.53;2.37;;;;;;;27.76;38.49;99012.44;4434769;32;33475;-71
2023/07/20 07:57:17;;;;;;;6.05;2.25;;;;;;;27.56;38.76;99013.69;4426255;32;33811;-74
2023/07/20 07:59:45;;;;;;;5.28;2.28;;;;;;;28.17;37.67;99018.75;4423109;32;34267;-72
2023/07/20 08:02:12;;;;;;;4.40;2.37;;;;;;;27.62;38.47;99020.97;4422636;32;33262;-75
2023/07/20 08:04:40;;;;;;;6.32;3.05;;;;;;;28.19;37.42;99016.59;4413553;32;33954;-73
2023/07/20 08:07:08;;;;;;;5.37;2.65;;;;;;;27.50;38.02;99025.66;4425265;32;34218;-78
2023/07/20 08:09:35;;;;;;;4.72;2.35;;;;;;;26.93;38.96;99031.78;4427254;32;34805;-77
2023/07/20 08:12:04;;;;;;;4.80;2.00;;;;;;;27.52;37.82;99041.91;4431382;32;33594;-79
2023/07/20 08:14:31;;;;;;;7.57;2.17;;;;;;;27.74;37.89;99034.69;4420691;32;33193;-78
2023/07/20 08:16:59;;;;;;;6.03;2.30;;;;;;;28.21;37.10;99030.94;4432549;32;35141;-75
2023/07/20 08:19:27;;;;;;;6.25;2.40;;;;;;;27.71;38.88;99042.59;4432179;32;35100;-75
2023/07/20 08:21:55;;;;;;;3.72;1.83;;;;;;;27.52;38.58;99045.47;4428261;32;33273;-74
2023/07/20 08:24:22;;;;;;;6.62;2.75;;;;;;;27.53;38.92;99040.81;4428941;32;33407;-72
2023/07/20 08:26:50;;;;;;;5.45;2.25;;;;;;;27.19;38.43;99043.34;4424027;32;33651;-74
2023/07/20 08:29:18;;;;;;;6.05;2.45;;;;;;;28.07;37.24;99036.72;4419811;32;33769;-75
2023/07/20 08:31:46;;;;;;;6.75;2.58;;;;;;;28.38;37.47;99039.19;4424836;32;32182;-76
2023/07/20 08:34:13;;;;;;;5.50;2.60;;;;;;;27.33;38.75;99039.31;4434563;32;32473;-76
2023/07/20 08:36:58;;;;;;;6.72;2.62;;;;;;;28.13;37.79;99045.94;4421858;32;33617;-71
2023/07/20 08:39:26;;;;;;;5.62;2.20;;;;;;;27.58;38.80;99044.53;4420686;32;34274;-72
2023/07/20 08:41:55;;;;;;;4.82;1.70;;;;;;;27.76;37.54;99061.91;4425223;32;33356;-73
2023/07/20 08:44:24;;;;;;;4.35;2.03;;;;;;;27.70;37.04;99065.63;4434443;32;33208;-74
2023/07/20 08:46:53;;;;;;;5.32;2.25;;;;;;;27.34;37.61;99073.09;4416069;32;35695;-73
2023/07/20 08:49:21;;;;;;;3.75;1.60;;;;;;;27.39;37.00;99065.81;4417296;32;34478;-74
2023/07/20 08:51:49;;;;;;;2.12;1.40;;;;;;;28.05;35.66;99063.63;4431641;32;33340;-74
2023/07/20 08:54:17;;;;;;;3.90;1.90;;;;;;;28.15;36.65;99064.91;4429891;32;34403;-75
2023/07/20 08:56:45;;;;;;;5.05;2.37;;;;;;;28.07;36.82;99060.66;4428965;32;33595;-74
2023/07/20 08:59:16;;;;;;;5.60;1.77;;;;;;;28.34;36.81;99064.47;4425666;32;32924;-74
2023/07/20 09:01:45;;;;;;;5.03;2.42;;;;;;;28.57;36.09;99059.94;4425273;32;33131;-75
2023/07/20 09:04:13;;;;;;;3.53;2.17;;;;;;;28.44;36.87;99074.03;4397815;32;34031;-74
2023/07/20 09:06:41;;;;;;;4.57;2.08;;;;;;;28.93;34.78;99085.34;4409222;32;34152;-75
2023/07/20 09:09:12;;;;;;;3.92;2.15;;;;;;;28.95;34.60;99081.25;4399943;32;32667;-75
2023/07/20 09:11:40;;;;;;;3.85;1.75;;;;;;;28.91;34.31;99076.50;4410606;32;34385;-75
2023/07/20 09:14:09;;;;;;;3.72;2.25;;;;;;;29.02;33.80;99079.22;4407356;32;33848;-73
2023/07/20 09:16:51;;;;;;;6.82;2.65;;;;;;;29.15;32.61;99077.16;4411935;32;33611;-75
2023/07/20 09:19:19;;;;;;;4.22;1.75;;;;;;;29.22;33.31;99077.84;4409788;32;35707;-75
2023/07/20 09:21:48;;;;;;;3.15;1.70;;;;;;;28.75;34.08;99073.47;4410685;32;33609;-75
2023/07/20 09:24:18;;;;;;;6.15;2.37;;;;;;;29.10;33.20;99072.44;4410768;32;34979;-75
2023/07/20 09:26:50;;;;;;;4.15;1.95;;;;;;;29.70;32.90;99068.91;4409802;32;34891;-75
2023/07/20 09:29:19;;;;;;;7.75;2.45;;;;;;;29.53;33.64;99065.31;4417099;32;33718;-75
2023/07/20 09:32:01;;;;;;;6.53;1.80;;;;;;;29.09;33.10;99080.97;4415602;32;34609;-73
2023/07/20 09:34:31;;;;;;;5.85;2.05;;;;;;;29.51;32.57;99075.78;4409980;32;35138;-72
2023/07/20 09:37:02;;;;;;;4.47;2.45;;;;;;;29.80;32.81;99081.16;4412061;32;33835;-76
2023/07/20 09:39:30;;;;;;;3.80;2.17;;;;;;;30.10;31.85;99073.25;4420950;32;33518;-75
2023/07/20 09:42:02;;;;;;;3.83;1.85;;;;;;;30.08;32.92;99069.06;4406736;32;33306;-73
2023/07/20 09:44:32;;;;;;;;;;;;;;;29.92;32.33;99073.56;4411037;32;34710;-74
2023/07/20 09:47:03;;;;;;;4.97;2.33;;;;;;;30.36;32.54;99076.31;4411891;32;34475;-73
2023/07/20 09:49:32;;;;;;;6.37;2.55;;;;;;;30.51;32.64;99075.62;4420817;32;34242;-73
2023/07/20 09:52:20;;;;;;;5.60;2.70;;;;;;;30.53;32.31;99076.19;4414865;32;34503;-74
2023/07/20 09:54:51;;;;;;;5.72;2.55;;;;;;;30.82;31.26;99069.34;4429438;32;33981;-73
2023/07/20 09:57:19;;;;;;;5.30;2.47;;;;;;;30.92;30.75;99067.75;4430716;32;34168;-71
2023/07/20 09:59:46;;;;;;;5.40;2.40;;;;;;;30.99;30.45;99076.66;4424814;32;34388;-72
2023/07/20 10:02:25;;;;;;;7.50;2.28;;;;;;;31.10;30.03;99081.97;4414990;32;33373;-73
2023/07/20 10:04:54;;;;;;;7.55;2.53;;;;;;;31.20;30.60;99088.66;4411548;32;35405;-71
2023/07/20 10:07:23;;;;;;;5.35;2.20;;;;;;;30.68;30.96;99095.69;4415915;32;34939;-72
2023/07/20 10:09:53;;;;;;;4.97;2.03;;;;;;;31.01;30.78;99086.34;4410676;32;34086;-71
2023/07/20 10:12:22;;;;;;;6.65;3.03;;;;;;;31.18;30.84;99088.94;4426384;32;33571;-71
2023/07/20 10:15:11;;;;;;;7.12;2.33;;;;;;;30.81;31.33;99097.22;4426875;32;33395;-72
2023/07/20 10:17:49;;;;;;;6.80;2.30;;;;;;;30.20;32.49;99096.56;4424656;32;34064;-72
2023/07/20 10:20:20;;;;;;;5.87;2.62;;;;;;;30.56;32.38;99092.25;4424746;32;35161;-71
2023/07/20 10:22:53;;;;;;;11.43;2.47;;;;;;;30.40;32.44;99092.09;4427030;32;34333;-72
2023/07/20 10:25:22;;;;;;;5.25;2.20;;;;;;;30.64;32.05;99083.50;4425202;32;33825;-71
2023/07/20 10:27:51;;;;;;;7.55;2.65;;;;;;;30.13;32.73;99091.22;4423885;32;33653;-70
2023/07/20 10:30:19;;;;;;;5.10;2.83;;;;;;;30.21;32.44;99088.03;4421915;32;33437;-71
2023/07/20 10:32:47;;;;;;;5.72;2.15;;;;;;;30.68;31.72;99098.44;4422310;32;32953;-72
2023/07/20 10:35:16;;;;;;;4.07;2.08;;;;;;;31.11;30.85;99093.87;4409155;32;33339;-71
2023/07/20 10:37:51;;;;;;;7.82;2.50;;;;;;;30.88;30.66;99095.06;4422211;32;34082;-72
2023/07/20 10:40:26;;;;;;;5.68;1.92;;;;;;;30.91;31.67;99082.66;4422681;32;32171;-72
2023/07/20 10:43:00;;;;;;;5.87;2.28;;;;;;;31.02;31.63;99090.75;4421621;32;34477;-71
2023/07/20 10:45:40;;;;;;;6.03;2.87;;;;;;;30.50;33.60;99085.84;4419816;32;33737;-72
2023/07/20 10:48:24;;;;;;;8.07;2.92;;;;;;;31.02;33.01;99081.66;4419534;32;33668;-72
2023/07/20 10:51:13;;;;;;;5.47;2.62;;;;;;;30.85;32.63;99074.34;4420042;32;34249;-71
2023/07/20 10:53:41;;;;;;;6.57;2.28;;;;;;;30.68;32.29;99075.50;4421113;32;33065;-73
2023/07/20 10:56:13;;;;;;;8.13;2.40;;;;;;;30.28;33.55;99080.38;4420544;32;33505;-75
2023/07/20 10:58:41;;;;;;;3.72;1.92;;;;;;;30.14;32.19;99079.06;4405945;32;33440;-72
2023/07/20 11:01:14;;;;;;;5.25;1.58;;;;;;;30.20;32.12;99080.84;4404826;32;33922;-74
2023/07/20 11:03:44;;;;;;;5.40;2.15;;;;;;;30.05;31.57;99075.09;4398927;32;34341;-75
2023/07/20 11:06:24;;;;;;;4.40;2.22;;;;;;;30.36;31.16;99079.91;4410578;32;34974;-72
2023/07/20 11:09:16;;;;;;;3.80;2.12;;;;;;;29.71;32.44;99073.31;4402849;32;35052;-73
2023/07/20 11:11:47;;;;;;;9.18;1.92;;;;;;;30.37;31.77;99072.47;4382952;32;33692;-78
2023/07/20 11:14:23;;;;;;;5.32;1.70;;;;;;;29.72;32.71;99071.41;4384828;32;32978;-77
2023/07/20 11:16:51;;;;;;;4.72;1.98;;;;;;;30.15;33.13;99078.00;4378768;32;33636;-77
2023/07/20 11:19:26;;;;;;;4.53;1.90;;;;;;;30.53;31.77;99076.19;4366143;32;34932;-73
2023/07/20 11:21:58;;;;;;;4.32;2.10;;;;;;;30.29;32.29;99064.66;4379557;32;33796;-75
2023/07/20 11:24:31;;;;;;;3.92;1.77;;;;;;;30.74;32.11;99072.53;4381598;32;33615;-75
2023/07/20 11:27:01;;;;;;;6.87;2.22;;;;;;;31.17;31.16;99070.69;4385664;32;33389;-74
2023/07/20 11:29:28;;;;;;;6.07;2.37;;;;;;;31.17;31.24;99073.44;4382735;32;34057;-75
2023/07/20 11:32:02;;;;;;;4.37;1.65;;;;;;;31.08;30.35;99080.59;4391989;32;34536;-75
2023/07/20 11:34:33;;;;;;;5.45;1.98;;;;;;;31.18;30.56;99075.12;4355453;32;33887;-76
2023/07/20 11:37:02;;;;;;;4.68;2.22;;;;;;;31.20;30.28;99075.69;4360701;32;33687;-77
2023/07/20 11:39:33;;;;;;;7.35;1.90;;;;;;;31.10;30.62;99083.91;4356192;32;33904;-77
2023/07/20 11:42:00;;;;;;;6.18;2.25;;;;;;;30.84;29.17;99080.09;4356120;32;34015;-76
2023/07/20 11:44:28;;;;;;;7.10;2.53;;;;;;;30.96;29.39;99077.16;4375913;32;33616;-74
2023/07/20 11:47:15;;;;;;;4.37;1.95;;;;;;;30.66;30.21;99074.94;4371812;32;33723;-77